TRAIN11 LSMD-LSMM
Flight info
| Callsign | TRAIN11 |
|---|---|
| Flight time | N/A |
| Altitude | 15000 |
| Route | VFR |
| Aircraft | PC21/L-V/N |
Departure
| Time | 2026-04-13 08:20 |
|---|---|
| Airport | Dübendorf Air Base (LSMD) |
Arrival
| Time | N/A |
|---|---|
| Airport | Meiringen Air Base (LSMM) |
| Time | Latitude | Longitude | Altitude | Speed | Heading |
|---|---|---|---|---|---|
| 2026-04-13 08:13 | 47.40529 | 8.64247 | 1434 ft | 0 kts | 41° |
| 2026-04-13 08:13 | 47.40534 | 8.64253 | 1434 ft | 4 kts | 40° |
| 2026-04-13 08:14 | 47.40548 | 8.64268 | 1434 ft | 2 kts | 4° |
| 2026-04-13 08:14 | 47.40553 | 8.64258 | 1434 ft | 2 kts | 263° |
| 2026-04-13 08:14 | 47.40531 | 8.64231 | 1434 ft | 6 kts | 216° |
| 2026-04-13 08:14 | 47.40498 | 8.64195 | 1434 ft | 6 kts | 216° |
| 2026-04-13 08:15 | 47.40470 | 8.64165 | 1434 ft | 4 kts | 216° |
| 2026-04-13 08:15 | 47.40462 | 8.64157 | 1434 ft | 0 kts | 216° |
| 2026-04-13 08:15 | 47.40435 | 8.64126 | 1435 ft | 10 kts | 217° |
| 2026-04-13 08:15 | 47.40387 | 8.64073 | 1434 ft | 8 kts | 217° |
| 2026-04-13 08:16 | 47.40346 | 8.64051 | 1434 ft | 6 kts | 148° |
| 2026-04-13 08:16 | 47.40303 | 8.64099 | 1435 ft | 7 kts | 143° |
| 2026-04-13 08:16 | 47.40257 | 8.64131 | 1436 ft | 6 kts | 139° |
| 2026-04-13 08:16 | 47.40179 | 8.64225 | 1437 ft | 21 kts | 142° |
| 2026-04-13 08:17 | 47.40067 | 8.64357 | 1436 ft | 20 kts | 141° |
| 2026-04-13 08:17 | 47.39968 | 8.64474 | 1437 ft | 17 kts | 141° |
| 2026-04-13 08:17 | 47.39896 | 8.64593 | 1440 ft | 14 kts | 108° |
| 2026-04-13 08:17 | 47.39871 | 8.64710 | 1442 ft | 17 kts | 108° |
| 2026-04-13 08:18 | 47.39819 | 8.64950 | 1451 ft | 28 kts | 107° |
| 2026-04-13 08:18 | 47.39764 | 8.65198 | 1456 ft | 24 kts | 108° |
| 2026-04-13 08:18 | 47.39716 | 8.65422 | 1457 ft | 22 kts | 108° |
| 2026-04-13 08:18 | 47.39671 | 8.65630 | 1456 ft | 21 kts | 108° |
| 2026-04-13 08:19 | 47.39628 | 8.65831 | 1460 ft | 19 kts | 107° |
| 2026-04-13 08:19 | 47.39589 | 8.66012 | 1460 ft | 18 kts | 107° |
| 2026-04-13 08:19 | 47.39554 | 8.66202 | 1465 ft | 19 kts | 93° |
| 2026-04-13 08:19 | 47.39536 | 8.66256 | 1462 ft | 4 kts | 219° |
| 2026-04-13 08:20 | 47.39553 | 8.66162 | 1461 ft | 39 kts | 288° |
| 2026-04-13 08:20 | 47.39730 | 8.65342 | 1469 ft | 120 kts | 289° |
| 2026-04-13 08:20 | 47.40023 | 8.63997 | 1894 ft | 156 kts | 284° |
| 2026-04-13 08:20 | 47.39405 | 8.62659 | 2160 ft | 199 kts | 197° |
| 2026-04-13 08:21 | 47.37898 | 8.62368 | 2228 ft | 234 kts | 186° |
| 2026-04-13 08:21 | 47.36177 | 8.62054 | 2449 ft | 265 kts | 188° |
| 2026-04-13 08:21 | 47.34245 | 8.61648 | 2340 ft | 299 kts | 187° |
| 2026-04-13 08:21 | 47.32146 | 8.61217 | 2330 ft | 313 kts | 188° |
| 2026-04-13 08:22 | 47.29967 | 8.60692 | 2746 ft | 312 kts | 192° |
| 2026-04-13 08:22 | 47.27875 | 8.60044 | 3195 ft | 310 kts | 191° |
| 2026-04-13 08:22 | 47.25765 | 8.59470 | 3668 ft | 307 kts | 190° |
| 2026-04-13 08:22 | 47.23666 | 8.58944 | 4167 ft | 304 kts | 192° |
| 2026-04-13 08:23 | 47.21743 | 8.57728 | 4721 ft | 299 kts | 209° |
| 2026-04-13 08:23 | 47.19975 | 8.56158 | 5291 ft | 294 kts | 212° |
| 2026-04-13 08:23 | 47.18284 | 8.54541 | 5872 ft | 285 kts | 212° |
| 2026-04-13 08:23 | 47.16671 | 8.52939 | 6434 ft | 276 kts | 213° |
| 2026-04-13 08:24 | 47.15113 | 8.51360 | 6986 ft | 267 kts | 213° |
| 2026-04-13 08:24 | 47.13609 | 8.49821 | 7543 ft | 263 kts | 213° |
| 2026-04-13 08:24 | 47.12103 | 8.48276 | 8103 ft | 271 kts | 213° |
| 2026-04-13 08:24 | 47.10542 | 8.46675 | 8405 ft | 277 kts | 213° |
| 2026-04-13 08:25 | 47.08913 | 8.45081 | 8396 ft | 285 kts | 206° |
| 2026-04-13 08:25 | 47.06998 | 8.44570 | 8392 ft | 289 kts | 173° |
| 2026-04-13 08:25 | 47.05165 | 8.45727 | 8390 ft | 294 kts | 141° |
| 2026-04-13 08:25 | 47.03912 | 8.48076 | 8411 ft | 300 kts | 123° |
| 2026-04-13 08:26 | 47.02852 | 8.50722 | 8387 ft | 302 kts | 120° |
| 2026-04-13 08:26 | 47.01463 | 8.52846 | 7787 ft | 309 kts | 177° |
| 2026-04-13 08:26 | 47.01589 | 8.52286 | 5389 ft | 315 kts | 53° |
| 2026-04-13 08:26 | 47.03374 | 8.53324 | 3931 ft | 331 kts | 352° |
| 2026-04-13 08:27 | 47.04795 | 8.52384 | 2588 ft | 341 kts | 326° |
| 2026-04-13 08:27 | 47.05800 | 8.53763 | 2201 ft | 301 kts | 204° |
| 2026-04-13 08:27 | 47.06056 | 8.52596 | 2165 ft | 274 kts | 20° |
| 2026-04-13 08:27 | 47.07197 | 8.53576 | 2368 ft | 239 kts | 269° |
| 2026-04-13 08:28 | 47.05908 | 8.52881 | 2114 ft | 185 kts | 289° |
| 2026-04-13 08:28 | 47.06386 | 8.50850 | 2489 ft | 236 kts | 296° |
| 2026-04-13 08:28 | 47.07484 | 8.48822 | 2636 ft | 267 kts | 313° |
| 2026-04-13 08:28 | 47.08247 | 8.46466 | 3151 ft | 267 kts | 226° |
| 2026-04-13 08:29 | 47.07419 | 8.45169 | 2315 ft | 268 kts | 289° |
| 2026-04-13 08:29 | 47.08072 | 8.42662 | 2518 ft | 241 kts | 291° |
| 2026-04-13 08:29 | 47.08741 | 8.40604 | 2582 ft | 209 kts | 297° |
| 2026-04-13 08:29 | 47.09402 | 8.38825 | 2757 ft | 193 kts | 299° |
| 2026-04-13 08:30 | 47.09811 | 8.37783 | 2638 ft | 199 kts | 300° |
| 2026-04-13 08:30 | 47.09818 | 8.37765 | 2632 ft | 199 kts | 300° |
| 2026-04-13 08:30 | 47.11038 | 8.36868 | 2156 ft | 220 kts | 4° |
| 2026-04-13 08:30 | 47.12437 | 8.37391 | 2283 ft | 194 kts | 325° |
| 2026-04-13 08:31 | 47.12443 | 8.35499 | 1992 ft | 212 kts | 252° |
| 2026-04-13 08:31 | 47.11899 | 8.33729 | 1861 ft | 162 kts | 234° |
| 2026-04-13 08:31 | 47.11205 | 8.32762 | 1670 ft | 121 kts | 221° |
| 2026-04-13 08:31 | 47.10528 | 8.31982 | 1477 ft | 130 kts | 219° |
| 2026-04-13 08:32 | 47.09827 | 8.31185 | 1393 ft | 116 kts | 218° |
| 2026-04-13 08:32 | 47.09227 | 8.30500 | 1443 ft | 121 kts | 218° |
| 2026-04-13 08:32 | 47.08422 | 8.29654 | 1760 ft | 160 kts | 184° |
| 2026-04-13 08:32 | 47.07387 | 8.30650 | 2050 ft | 216 kts | 142° |
| 2026-04-13 08:33 | 47.06164 | 8.32186 | 2734 ft | 244 kts | 140° |
| 2026-04-13 08:33 | 47.04812 | 8.33856 | 3412 ft | 262 kts | 141° |
| 2026-04-13 08:33 | 47.03441 | 8.35748 | 3223 ft | 304 kts | 129° |
| 2026-04-13 08:33 | 47.02303 | 8.38494 | 3068 ft | 323 kts | 113° |
| 2026-04-13 08:34 | 47.01579 | 8.41195 | 3024 ft | 332 kts | 112° |
| 2026-04-13 08:34 | 47.00673 | 8.44439 | 1823 ft | 358 kts | 116° |
| 2026-04-13 08:34 | 46.99134 | 8.47077 | 1792 ft | 332 kts | 114° |
| 2026-04-13 08:34 | 46.98714 | 8.50448 | 1451 ft | 344 kts | 97° |
| 2026-04-13 08:35 | 46.98443 | 8.53878 | 1476 ft | 337 kts | 96° |
| 2026-04-13 08:35 | 46.99504 | 8.56577 | 1540 ft | 328 kts | 56° |
| 2026-04-13 08:35 | 46.99518 | 8.59355 | 1662 ft | 313 kts | 101° |
| 2026-04-13 08:35 | 46.98258 | 8.61086 | 1589 ft | 295 kts | 191° |
| 2026-04-13 08:36 | 46.96194 | 8.61393 | 1565 ft | 309 kts | 174° |
| 2026-04-13 08:36 | 46.94312 | 8.61775 | 1526 ft | 281 kts | 216° |
| 2026-04-13 08:36 | 46.92469 | 8.61363 | 1555 ft | 286 kts | 134° |
| 2026-04-13 08:36 | 46.90783 | 8.62401 | 1541 ft | 283 kts | 143° |
| 2026-04-13 08:37 | 46.89718 | 8.60858 | 1579 ft | 249 kts | 214° |
| 2026-04-13 08:37 | 46.89238 | 8.59553 | 1643 ft | 211 kts | 343° |
| 2026-04-13 08:37 | 46.90855 | 8.59274 | 1475 ft | 255 kts | 2° |
| 2026-04-13 08:37 | 46.92250 | 8.59020 | 1520 ft | 233 kts | 314° |
| 2026-04-13 08:38 | 46.93667 | 8.58077 | 1616 ft | 252 kts | 23° |
| 2026-04-13 08:38 | 46.95394 | 8.58925 | 1530 ft | 278 kts | 14° |
| 2026-04-13 08:38 | 46.97270 | 8.59240 | 1863 ft | 274 kts | 359° |
| 2026-04-13 08:38 | 46.98818 | 8.58780 | 1587 ft | 265 kts | 256° |
| 2026-04-13 08:39 | 46.98179 | 8.56797 | 1797 ft | 75 kts | 247° |
| 2026-04-13 08:39 | 46.97624 | 8.55726 | 1464 ft | 178 kts | 245° |
| 2026-04-13 08:39 | 46.97104 | 8.53830 | 1637 ft | 220 kts | 257° |
| 2026-04-13 08:39 | 46.96476 | 8.51493 | 1624 ft | 269 kts | 249° |
| 2026-04-13 08:40 | 46.96340 | 8.48671 | 1540 ft | 292 kts | 286° |
| 2026-04-13 08:40 | 46.97193 | 8.46061 | 1657 ft | 297 kts | 271° |
| 2026-04-13 08:40 | 46.97470 | 8.43160 | 1553 ft | 292 kts | 270° |
| 2026-04-13 08:40 | 46.98739 | 8.42182 | 1725 ft | 257 kts | 57° |
| 2026-04-13 08:41 | 46.99422 | 8.44671 | 1609 ft | 269 kts | 91° |
| 2026-04-13 08:41 | 47.00102 | 8.45848 | 1797 ft | 204 kts | 274° |
| 2026-04-13 08:41 | 47.00199 | 8.43560 | 1560 ft | 243 kts | 286° |
| 2026-04-13 08:41 | 47.00334 | 8.41087 | 1554 ft | 255 kts | 283° |
| 2026-04-13 08:42 | 47.00344 | 8.38483 | 1579 ft | 258 kts | 265° |
| 2026-04-13 08:42 | 46.99898 | 8.36390 | 1631 ft | 225 kts | 197° |
| 2026-04-13 08:42 | 46.98659 | 8.35032 | 1503 ft | 234 kts | 207° |
| 2026-04-13 08:42 | 46.97350 | 8.33765 | 1539 ft | 242 kts | 199° |
| 2026-04-13 08:43 | 46.96240 | 8.32036 | 1522 ft | 246 kts | 239° |
| 2026-04-13 08:43 | 46.95297 | 8.29956 | 1641 ft | 235 kts | 255° |
| 2026-04-13 08:43 | 46.95970 | 8.28500 | 1756 ft | 202 kts | 45° |
| 2026-04-13 08:43 | 46.96834 | 8.30422 | 1541 ft | 248 kts | 69° |
| 2026-04-13 08:44 | 46.97286 | 8.32810 | 1539 ft | 252 kts | 65° |
| 2026-04-13 08:44 | 46.97908 | 8.32105 | 1582 ft | 207 kts | 268° |
| 2026-04-13 08:44 | 46.98863 | 8.31568 | 1473 ft | 219 kts | 46° |
| 2026-04-13 08:44 | 47.00058 | 8.31181 | 1536 ft | 202 kts | 335° |
| 2026-04-13 08:45 | 47.01047 | 8.31196 | 1531 ft | 180 kts | 79° |
| 2026-04-13 08:45 | 47.00240 | 8.32391 | 1524 ft | 194 kts | 120° |
| 2026-04-13 08:45 | 47.00476 | 8.34063 | 1579 ft | 174 kts | 45° |
| 2026-04-13 08:45 | 47.01541 | 8.34221 | 1488 ft | 163 kts | 357° |
| 2026-04-13 08:46 | 47.02605 | 8.33803 | 1521 ft | 187 kts | 4° |
| 2026-04-13 08:46 | 47.03741 | 8.33154 | 1562 ft | 195 kts | 344° |
| 2026-04-13 08:46 | 47.04697 | 8.32113 | 1556 ft | 181 kts | 296° |
| 2026-04-13 08:46 | 47.05524 | 8.31466 | 1710 ft | 164 kts | 79° |
| 2026-04-13 08:47 | 47.05296 | 8.33323 | 1474 ft | 191 kts | 147° |
| 2026-04-13 08:47 | 47.04504 | 8.34613 | 1477 ft | 201 kts | 127° |
| 2026-04-13 08:47 | 47.03288 | 8.35448 | 1696 ft | 174 kts | 116° |
| 2026-04-13 08:47 | 47.03809 | 8.36983 | 1498 ft | 207 kts | 45° |
| 2026-04-13 08:48 | 47.04920 | 8.38553 | 1514 ft | 241 kts | 59° |
| 2026-04-13 08:48 | 47.06058 | 8.40231 | 1619 ft | 235 kts | 46° |
| 2026-04-13 08:48 | 47.06847 | 8.42082 | 1559 ft | 220 kts | 38° |
| 2026-04-13 08:48 | 47.08101 | 8.43356 | 1636 ft | 205 kts | 69° |
| 2026-04-13 08:49 | 47.07386 | 8.43349 | 1523 ft | 200 kts | 219° |
| 2026-04-13 08:49 | 47.06014 | 8.42748 | 1523 ft | 209 kts | 208° |
| 2026-04-13 08:49 | 47.04772 | 8.42096 | 1517 ft | 212 kts | 213° |
| 2026-04-13 08:49 | 47.03870 | 8.40451 | 1574 ft | 195 kts | 220° |
| 2026-04-13 08:50 | 47.02675 | 8.39717 | 1655 ft | 182 kts | 118° |
| 2026-04-13 08:50 | 47.02896 | 8.41481 | 1466 ft | 201 kts | 99° |
| 2026-04-13 08:50 | 47.03128 | 8.43386 | 1561 ft | 209 kts | 96° |
| 2026-04-13 08:50 | 47.02454 | 8.45342 | 1566 ft | 227 kts | 129° |
| 2026-04-13 08:51 | 47.01863 | 8.47160 | 1519 ft | 226 kts | 147° |
| 2026-04-13 08:51 | 47.00662 | 8.48272 | 1549 ft | 211 kts | 158° |
| 2026-04-13 08:51 | 46.99663 | 8.47425 | 1608 ft | 189 kts | 204° |
| 2026-04-13 08:51 | 46.99352 | 8.48630 | 1525 ft | 189 kts | 121° |
| 2026-04-13 08:52 | 46.99216 | 8.50486 | 1467 ft | 217 kts | 84° |
| 2026-04-13 08:52 | 46.99067 | 8.52736 | 1477 ft | 237 kts | 84° |
| 2026-04-13 08:52 | 46.98905 | 8.54868 | 1578 ft | 227 kts | 79° |
| 2026-04-13 08:52 | 46.99649 | 8.56847 | 1552 ft | 224 kts | 63° |
| 2026-04-13 08:53 | 47.00540 | 8.58403 | 2754 ft | 171 kts | 30° |
| 2026-04-13 08:53 | 47.01480 | 8.58729 | 4492 ft | 138 kts | 342° |
| 2026-04-13 08:53 | 47.02552 | 8.57545 | 3527 ft | 253 kts | 316° |
| 2026-04-13 08:53 | 47.03807 | 8.55633 | 4198 ft | 262 kts | 312° |
| 2026-04-13 08:54 | 47.05065 | 8.53517 | 4537 ft | 283 kts | 309° |
| 2026-04-13 08:54 | 47.06323 | 8.51216 | 4780 ft | 299 kts | 308° |
| 2026-04-13 08:54 | 47.07594 | 8.48594 | 3787 ft | 334 kts | 304° |
| 2026-04-13 08:54 | 47.08954 | 8.45687 | 2555 ft | 349 kts | 298° |
| 2026-04-13 08:55 | 47.08781 | 8.42402 | 2786 ft | 328 kts | 246° |
| 2026-04-13 08:55 | 47.08009 | 8.39343 | 3355 ft | 313 kts | 252° |
| 2026-04-13 08:55 | 47.07337 | 8.36179 | 2529 ft | 332 kts | 255° |
| 2026-04-13 08:55 | 47.07218 | 8.32840 | 2565 ft | 329 kts | 267° |
| 2026-04-13 08:56 | 47.06803 | 8.29618 | 3085 ft | 316 kts | 249° |
| 2026-04-13 08:56 | 47.05606 | 8.27062 | 3828 ft | 302 kts | 216° |
| 2026-04-13 08:56 | 47.03607 | 8.26227 | 4326 ft | 303 kts | 188° |
| 2026-04-13 08:56 | 47.01574 | 8.25777 | 5167 ft | 295 kts | 190° |
| 2026-04-13 08:57 | 46.99527 | 8.25276 | 5750 ft | 300 kts | 191° |
| 2026-04-13 08:57 | 46.97552 | 8.24762 | 6986 ft | 283 kts | 187° |
| 2026-04-13 08:57 | 46.95495 | 8.24131 | 6682 ft | 316 kts | 195° |
| 2026-04-13 08:57 | 46.93347 | 8.23221 | 6286 ft | 334 kts | 199° |
| 2026-04-13 08:58 | 46.91109 | 8.22052 | 5479 ft | 347 kts | 200° |
| 2026-04-13 08:58 | 46.88904 | 8.20950 | 5497 ft | 326 kts | 199° |
| 2026-04-13 08:58 | 46.86759 | 8.19938 | 5117 ft | 327 kts | 198° |
| 2026-04-13 08:58 | 46.84591 | 8.18935 | 4808 ft | 325 kts | 198° |
| 2026-04-13 08:59 | 46.82616 | 8.18032 | 6151 ft | 267 kts | 198° |
| 2026-04-13 08:59 | 46.81014 | 8.17294 | 6574 ft | 246 kts | 199° |